Time;durP1;ratioP1;P1;durP2;ratioP2;P2;SDS_P1;SDS_P2;PMS_P1;PMS_P2;Temp;Humidity;BMP_temperature;BMP_pressure;BME280_temperature;BME280_humidity;BME280_pressure;Samples;Min_cycle;Max_cycle;Signal;HPM_P1;HPM_P2
2022/06/06 00:01:10;;;;;;;2.58;2.15;;;;;;;12.46;80.92;101074.34;5088416;28;20081;-73
2022/06/06 00:03:36;;;;;;;3.17;2.40;;;;;;;12.58;80.91;101076.78;5077522;28;20032;-74
2022/06/06 00:06:02;;;;;;;2.88;2.42;;;;;;;12.60;81.64;101083.63;5082678;28;20035;-74
2022/06/06 00:08:27;;;;;;;3.65;2.22;;;;;;;12.65;80.81;101085.53;5087284;28;20406;-73
2022/06/06 00:10:56;;;;;;;3.70;2.47;;;;;;;12.60;80.89;101085.56;5078510;28;20032;-73
2022/06/06 00:13:21;;;;;;;3.22;2.10;;;;;;;12.59;81.81;101094.94;5071550;28;20534;-74
2022/06/06 00:15:47;;;;;;;2.53;2.33;;;;;;;12.62;81.30;101091.59;5077288;28;20055;-74
2022/06/06 00:18:13;;;;;;;2.85;2.50;;;;;;;12.69;81.44;101081.13;5086410;28;20858;-74
2022/06/06 00:20:38;;;;;;;4.05;2.53;;;;;;;12.76;80.75;101095.38;5079560;28;20659;-74
2022/06/06 00:23:04;;;;;;;2.92;2.50;;;;;;;12.71;81.41;101103.69;5084378;28;20115;-73
2022/06/06 00:25:30;;;;;;;5.18;2.60;;;;;;;12.66;81.40;101104.50;5077725;28;20083;-73
2022/06/06 00:27:55;;;;;;;2.88;2.53;;;;;;;12.56;80.99;101101.84;5077136;28;20119;-74
2022/06/06 00:30:21;;;;;;;3.75;2.75;;;;;;;12.49;81.96;101114.25;5072326;28;20036;-73
2022/06/06 00:35:31;;;;;;;4.32;2.47;;;;;;;12.45;81.95;101126.94;5083307;28;20070;-73
2022/06/06 00:37:56;;;;;;;4.18;2.75;;;;;;;12.48;81.85;101126.34;5079173;28;20056;-73
2022/06/06 00:40:24;;;;;;;3.97;2.58;;;;;;;12.34;82.31;101132.50;5086038;28;20040;-73
2022/06/06 00:42:50;;;;;;;3.88;2.65;;;;;;;12.37;82.54;101131.91;5075161;28;20044;-73
2022/06/06 00:45:21;;;;;;;3.47;2.90;;;;;;;12.31;82.22;101133.03;5088577;28;20414;-73
2022/06/06 00:47:51;;;;;;;3.95;2.55;;;;;;;12.21;82.33;101127.56;5088254;28;20517;-73
2022/06/06 00:50:25;;;;;;;2.97;2.60;;;;;;;12.14;82.35;101132.53;5072598;28;20076;-73
2022/06/06 00:52:52;;;;;;;4.35;2.67;;;;;;;12.14;82.56;101124.28;5086779;28;20099;-73
2022/06/06 00:55:21;;;;;;;3.08;2.38;;;;;;;12.13;82.93;101128.13;5083653;28;20486;-74
2022/06/06 00:57:50;;;;;;;2.95;2.50;;;;;;;12.07;83.43;101135.59;5076520;28;20502;-74
2022/06/06 01:00:17;;;;;;;4.22;2.40;;;;;;;12.08;83.06;101133.66;5052470;28;20447;-74
2022/06/06 01:02:46;;;;;;;5.78;2.60;;;;;;;12.05;82.91;101142.47;5074481;28;20036;-74
2022/06/06 01:05:12;;;;;;;4.47;2.25;;;;;;;11.98;82.75;101139.19;5099422;27;20041;-73
2022/06/06 01:07:37;;;;;;;2.88;2.25;;;;;;;11.98;82.75;101140.03;5088478;28;20101;-73
2022/06/06 01:10:03;;;;;;;2.50;2.13;;;;;;;11.93;82.42;101133.69;5086720;28;20043;-73
2022/06/06 01:12:31;;;;;;;2.88;1.98;;;;;;;11.90;82.77;101137.00;5085081;28;20039;-73
2022/06/06 01:15:04;;;;;;;3.03;2.53;;;;;;;11.84;83.12;101138.13;5085852;28;20057;-73
2022/06/06 01:17:40;;;;;;;4.00;2.22;;;;;;;11.81;83.30;101141.44;5087628;28;20127;-73
2022/06/06 01:20:37;;;;;;;3.90;2.05;;;;;;;11.74;82.71;101145.22;5071995;28;20038;-73
2022/06/06 01:23:27;;;;;;;2.65;2.30;;;;;;;11.72;82.88;101152.94;5090347;28;20130;-73
2022/06/06 01:26:18;;;;;;;2.85;2.20;;;;;;;11.88;82.98;101153.78;5064452;28;20352;-73
2022/06/06 01:28:51;;;;;;;2.92;2.08;;;;;;;11.82;83.34;101159.56;5075411;28;20075;-73
2022/06/06 01:31:44;;;;;;;2.75;2.10;;;;;;;11.79;83.02;101160.94;5088403;28;20410;-73
2022/06/06 01:34:13;;;;;;;2.97;2.00;;;;;;;11.83;83.21;101164.78;5087336;28;20040;-73
2022/06/06 01:36:40;;;;;;;2.13;1.88;;;;;;;11.83;82.86;101164.78;5085502;28;20043;-73
2022/06/06 01:39:10;;;;;;;2.70;2.05;;;;;;;11.84;82.79;101166.44;5086848;28;20047;-73
2022/06/06 01:41:40;;;;;;;3.55;2.13;;;;;;;11.76;82.69;101176.03;5077131;28;20044;-73
2022/06/06 01:44:22;;;;;;;2.28;2.08;;;;;;;11.70;83.14;101173.56;5073463;28;20040;-73
2022/06/06 01:46:49;;;;;;;2.58;2.22;;;;;;;11.70;82.15;101171.63;5082677;28;20079;-73
2022/06/06 01:49:15;;;;;;;2.58;2.17;;;;;;;11.69;83.03;101180.16;5070481;28;20446;-73
2022/06/06 01:51:41;;;;;;;2.58;2.38;;;;;;;11.70;82.26;101171.63;5077718;28;20063;-73
2022/06/06 01:54:07;;;;;;;2.38;2.17;;;;;;;11.82;83.17;101167.81;5084325;28;20044;-73
2022/06/06 01:56:38;;;;;;;2.47;2.25;;;;;;;11.93;82.03;101180.44;5078706;28;20036;-73
2022/06/06 01:59:04;;;;;;;2.70;2.15;;;;;;;11.91;82.28;101174.41;5079197;28;20076;-73
2022/06/06 02:01:30;;;;;;;2.50;2.05;;;;;;;11.96;81.77;101175.19;5076059;28;20068;-73
2022/06/06 02:03:56;;;;;;;3.33;2.03;;;;;;;12.14;81.87;101186.72;5070420;28;20127;-73
2022/06/06 02:06:22;;;;;;;2.65;2.00;;;;;;;12.18;81.54;101174.91;5070738;28;20466;-73
2022/06/06 02:08:50;;;;;;;2.45;1.90;;;;;;;12.17;80.74;101173.25;5071308;28;20032;-73
2022/06/06 02:11:17;;;;;;;2.60;2.17;;;;;;;12.26;80.64;101166.06;5072317;28;20418;-73
2022/06/06 02:13:43;;;;;;;2.22;1.92;;;;;;;12.45;79.61;101171.78;5087761;28;20037;-73
2022/06/06 02:16:09;;;;;;;2.63;2.30;;;;;;;12.50;79.05;101174.53;5094938;28;20403;-73
2022/06/06 02:18:35;;;;;;;3.63;1.90;;;;;;;12.71;78.16;101175.28;5086616;28;20058;-73
2022/06/06 02:21:03;;;;;;;2.67;1.92;;;;;;;12.75;77.67;101184.63;5079027;28;20032;-73
2022/06/06 02:23:29;;;;;;;2.65;1.58;;;;;;;12.78;77.24;101186.81;5072762;28;20128;-73
2022/06/06 02:25:55;;;;;;;2.15;1.80;;;;;;;12.79;77.48;101188.44;5081027;28;20134;-73
2022/06/06 02:28:20;;;;;;;2.88;2.33;;;;;;;13.02;77.27;101183.41;5081054;28;20120;-73
2022/06/06 02:30:46;;;;;;;2.70;2.13;;;;;;;13.05;76.37;101191.09;5083616;28;20041;-73
2022/06/06 02:33:11;;;;;;;2.53;2.20;;;;;;;13.07;76.25;101180.59;5087439;28;20047;-73
2022/06/06 02:35:40;;;;;;;2.28;1.60;;;;;;;13.23;75.61;101187.69;5085536;28;20040;-73
2022/06/06 02:38:06;;;;;;;2.10;1.90;;;;;;;13.45;74.53;101188.09;5082797;28;20437;-73
2022/06/06 02:40:32;;;;;;;2.45;1.70;;;;;;;13.48;73.73;101193.03;5074066;28;20457;-73
2022/06/06 02:42:58;;;;;;;1.75;1.60;;;;;;;13.44;73.70;101191.97;5079998;28;20036;-73
2022/06/06 02:45:24;;;;;;;3.08;2.10;;;;;;;13.48;73.55;101200.47;5086151;28;20036;-73
2022/06/06 02:47:52;;;;;;;3.38;1.90;;;;;;;13.53;73.41;101204.00;5074517;28;20044;-73
2022/06/06 02:50:21;;;;;;;2.17;2.07;;;;;;;13.80;72.61;101199.94;5089657;28;20089;-73
2022/06/06 02:52:46;;;;;;;3.28;2.25;;;;;;;13.93;71.86;101203.97;5065376;28;20037;-73
2022/06/06 02:55:13;;;;;;;2.20;1.67;;;;;;;13.88;71.64;101204.81;5063424;28;20040;-73
2022/06/06 02:57:44;;;;;;;3.03;1.90;;;;;;;13.94;71.90;101209.22;5081978;28;20085;-73
2022/06/06 03:00:13;;;;;;;1.83;1.50;;;;;;;13.97;70.85;101200.34;5090311;28;20083;-73
2022/06/06 03:02:38;;;;;;;1.60;1.50;;;;;;;14.01;70.33;101206.91;5081732;28;20074;-73
2022/06/06 03:05:05;;;;;;;1.95;1.67;;;;;;;14.09;70.01;101213.75;5084408;28;20111;-73
2022/06/06 03:07:50;;;;;;;2.05;1.50;;;;;;;14.25;69.00;101208.91;5075834;28;20047;-73
2022/06/06 03:10:53;;;;;;;2.10;1.48;;;;;;;14.20;68.61;101218.06;5084815;28;20169;-73
2022/06/06 03:13:36;;;;;;;1.40;1.30;;;;;;;14.27;68.29;101218.56;5095397;28;20040;-73
2022/06/06 03:22:38;;;;;;;1.50;1.35;;;;;;;14.55;67.15;101227.09;5075130;28;20048;-73
2022/06/06 03:25:28;;;;;;;3.97;1.48;;;;;;;14.77;66.79;101221.91;5086753;28;20075;-73
2022/06/06 03:28:11;;;;;;;1.77;1.38;;;;;;;14.84;65.62;101227.06;5080647;28;20512;-73
2022/06/06 03:30:58;;;;;;;2.28;1.52;;;;;;;14.89;65.68;101240.78;5080489;28;20040;-73
2022/06/06 03:33:39;;;;;;;2.72;1.40;;;;;;;15.13;64.72;101240.78;5083152;28;20036;-73
2022/06/06 03:36:15;;;;;;;1.88;1.60;;;;;;;15.37;63.92;101239.59;5090427;28;20040;-74
2022/06/06 03:38:41;;;;;;;1.65;1.40;;;;;;;15.53;63.29;101236.59;5083006;28;20067;-73
2022/06/06 03:41:18;;;;;;;1.23;1.13;;;;;;;15.69;62.44;101238.03;5076156;28;20044;-73
2022/06/06 03:44:06;;;;;;;1.25;1.15;;;;;;;15.66;61.58;101241.41;5084315;28;20118;-73
2022/06/06 03:46:37;;;;;;;1.40;1.27;;;;;;;15.89;61.09;101251.53;5076385;28;20044;-73
2022/06/06 03:49:24;;;;;;;1.27;1.17;;;;;;;15.92;59.08;101252.88;5071558;28;20043;-73
2022/06/06 03:51:59;;;;;;;1.13;1.00;;;;;;;15.72;59.33;101253.22;5079772;28;20078;-73
2022/06/06 03:58:03;;;;;;;1.30;1.20;;;;;;;16.53;57.59;101246.28;5087893;28;20028;-73
2022/06/06 04:00:30;;;;;;;1.35;1.23;;;;;;;16.66;56.65;101239.06;5088629;28;20194;-73
2022/06/06 04:02:56;;;;;;;1.05;0.95;;;;;;;16.77;55.67;101246.91;5088245;28;20081;-73
2022/06/06 04:05:22;;;;;;;1.45;1.17;;;;;;;16.87;55.37;101252.28;5091431;28;20061;-75
2022/06/06 04:07:48;;;;;;;1.00;0.90;;;;;;;16.98;55.34;101252.88;5091331;28;20036;-75
2022/06/06 04:10:15;;;;;;;1.17;1.00;;;;;;;17.08;54.10;101255.44;5064108;28;20081;-73
2022/06/06 04:12:57;;;;;;;1.27;1.10;;;;;;;17.21;53.96;101250.19;5070436;28;20123;-73
2022/06/06 04:15:50;;;;;;;1.10;1.10;;;;;;;17.51;52.42;101252.25;5070620;28;20045;-73
2022/06/06 04:18:30;;;;;;;1.50;1.10;;;;;;;17.39;52.72;101247.25;5058520;28;20083;-73
2022/06/06 04:21:05;;;;;;;1.10;0.82;;;;;;;17.37;50.80;101254.25;5071979;28;20047;-73
2022/06/06 04:23:40;;;;;;;1.77;0.80;;;;;;;17.55;50.26;101256.06;5071377;28;20037;-73
2022/06/06 04:26:23;;;;;;;1.30;0.90;;;;;;;17.65;48.37;101255.00;5074066;28;20037;-76
2022/06/06 04:29:01;;;;;;;1.33;0.98;;;;;;;17.57;48.55;101252.97;5073345;28;20040;-74
2022/06/06 04:31:38;;;;;;;1.00;0.90;;;;;;;17.74;46.78;101264.25;5088391;28;20036;-75
2022/06/06 04:34:17;;;;;;;0.80;0.80;;;;;;;17.85;46.86;101257.31;5088491;28;20032;-73
2022/06/06 04:36:48;;;;;;;1.02;0.93;;;;;;;18.24;45.11;101273.28;5090436;28;20089;-73
2022/06/06 04:39:14;;;;;;;0.75;0.75;;;;;;;18.13;44.40;101269.09;5091542;28;20032;-73
2022/06/06 04:41:45;;;;;;;1.40;0.70;;;;;;;18.09;44.44;101268.09;5082060;28;20441;-73
2022/06/06 04:44:32;;;;;;;1.40;1.10;;;;;;;18.29;43.77;101270.34;5076889;28;20036;-73
2022/06/06 04:47:34;;;;;;;0.75;0.75;;;;;;;18.49;43.49;101276.50;5090301;28;20070;-74
2022/06/06 04:50:04;;;;;;;0.77;0.77;;;;;;;18.66;42.94;101282.19;5075247;28;20058;-73
2022/06/06 04:52:30;;;;;;;0.98;0.80;;;;;;;18.99;41.10;101279.88;5090202;28;20036;-73
2022/06/06 04:54:56;;;;;;;1.55;0.60;;;;;;;19.11;40.00;101284.81;5074398;28;20058;-73
2022/06/06 04:57:23;;;;;;;1.02;0.93;;;;;;;19.02;39.11;101284.78;5091751;28;20044;-73
2022/06/06 04:59:50;;;;;;;1.15;0.80;;;;;;;18.93;39.33;101283.94;5095659;28;20119;-73
2022/06/06 05:02:16;;;;;;;0.88;0.70;;;;;;;19.11;39.63;101290.38;5089289;28;20032;-73
2022/06/06 05:04:42;;;;;;;0.85;0.85;;;;;;;19.33;38.03;101290.28;5085954;28;20084;-73
2022/06/06 05:07:29;;;;;;;1.17;0.90;;;;;;;19.33;38.50;101295.03;5090607;28;20085;-73
2022/06/06 05:10:06;;;;;;;1.05;0.95;;;;;;;19.33;38.00;101295.84;5083228;28;20044;-73
2022/06/06 05:12:54;;;;;;;0.80;0.68;;;;;;;19.13;37.93;101296.44;5087360;28;20121;-73
2022/06/06 05:15:43;;;;;;;1.10;0.68;;;;;;;19.17;37.19;101294.66;5071117;28;20048;-74
2022/06/06 05:18:13;;;;;;;0.95;0.65;;;;;;;19.20;37.10;101302.34;5081763;28;20090;-74
2022/06/06 05:20:59;;;;;;;1.58;0.70;;;;;;;19.45;36.81;101312.75;5091325;28;20070;-74
2022/06/06 05:24:04;;;;;;;1.05;0.70;;;;;;;19.99;36.18;101306.91;5091215;28;20095;-74
2022/06/06 05:26:34;;;;;;;0.90;0.90;;;;;;;19.91;35.69;101314.09;5081789;28;20082;-74
2022/06/06 05:29:14;;;;;;;2.15;0.77;;;;;;;20.05;35.33;101320.34;5089880;28;20043;-74
2022/06/06 05:32:14;;;;;;;0.95;0.73;;;;;;;20.20;34.96;101320.97;5090116;28;20040;-74
2022/06/06 05:34:46;;;;;;;1.17;0.55;;;;;;;20.39;34.31;101325.06;5091090;28;20050;-74
2022/06/06 05:37:32;;;;;;;0.82;0.63;;;;;;;20.28;32.89;101322.94;5089568;28;20429;-74
2022/06/06 05:40:14;;;;;;;0.60;0.40;;;;;;;20.16;33.50;101330.00;5090057;28;20109;-74
2022/06/06 05:43:01;;;;;;;0.75;0.70;;;;;;;20.02;33.38;101329.34;5091004;28;20044;-74
2022/06/06 05:45:37;;;;;;;1.48;0.73;;;;;;;20.02;33.82;101337.72;5087574;28;20036;-74
2022/06/06 05:48:24;;;;;;;3.70;0.60;;;;;;;19.90;32.18;101336.72;5070420;28;20036;-74
2022/06/06 05:51:03;;;;;;;0.50;0.50;;;;;;;19.98;31.55;101339.53;5068819;28;20048;-74
2022/06/06 05:53:53;;;;;;;0.43;0.40;;;;;;;20.30;30.43;101348.50;5070228;28;20037;-74
2022/06/06 05:56:45;;;;;;;0.50;0.40;;;;;;;20.17;30.49;101344.75;5070800;28;20044;-74
2022/06/06 05:59:31;;;;;;;1.55;0.50;;;;;;;20.11;30.92;101341.28;5069210;28;20060;-74
2022/06/06 06:02:18;;;;;;;0.52;0.50;;;;;;;20.45;31.38;101346.06;5070679;28;20530;-74
2022/06/06 06:04:56;;;;;;;0.45;0.30;;;;;;;20.67;30.77;101345.03;5070408;28;20043;-74
2022/06/06 06:07:29;;;;;;;0.63;0.30;;;;;;;20.49;30.59;101349.03;5070297;28;20559;-74
2022/06/06 06:10:07;;;;;;;0.30;0.30;;;;;;;20.40;29.86;101342.59;5070806;28;20053;-74
2022/06/06 06:13:00;;;;;;;0.40;0.35;;;;;;;20.47;30.59;101345.72;5071188;28;20497;-74
2022/06/06 06:15:37;;;;;;;0.55;0.40;;;;;;;20.62;30.31;101342.41;5073041;28;20063;-74
2022/06/06 06:18:13;;;;;;;0.85;0.43;;;;;;;20.53;30.78;101340.81;5107282;28;20036;-74
2022/06/06 06:21:10;;;;;;;0.63;0.50;;;;;;;20.80;30.17;101345.16;5084629;28;20054;-74
2022/06/06 06:23:41;;;;;;;0.40;0.40;;;;;;;20.72;29.81;101344.84;5078874;28;20139;-74
2022/06/06 06:26:06;;;;;;;0.40;0.40;;;;;;;20.61;29.86;101343.56;5090941;28;20075;-74
2022/06/06 06:28:34;;;;;;;1.02;0.30;;;;;;;20.73;28.92;101338.13;5094655;28;20079;-74
2022/06/06 06:31:31;;;;;;;2.05;0.40;;;;;;;20.60;29.23;101343.91;5093210;28;20039;-74
2022/06/06 06:34:18;;;;;;;1.27;0.40;;;;;;;20.38;29.37;101347.69;5093480;28;20044;-73
2022/06/06 06:36:46;;;;;;;1.08;0.30;;;;;;;20.16;29.37;101343.94;5094024;28;20481;-74
2022/06/06 06:39:21;;;;;;;0.50;0.43;;;;;;;20.18;28.94;101352.78;5074020;28;20033;-73
2022/06/06 06:42:24;;;;;;;0.30;0.30;;;;;;;20.22;29.46;101349.34;5077017;28;20040;-73
2022/06/06 06:44:55;;;;;;;0.55;0.50;;;;;;;20.42;28.87;101357.06;5072309;28;20584;-73
2022/06/06 06:47:29;;;;;;;0.77;0.50;;;;;;;20.36;28.82;101352.78;5055405;28;20048;-73
2022/06/06 06:50:29;;;;;;;0.60;0.30;;;;;;;20.52;28.27;101358.69;5072413;28;20120;-73
2022/06/06 06:53:21;;;;;;;1.42;0.60;;;;;;;20.78;28.28;101351.06;5072771;28;20044;-73
2022/06/06 06:56:05;;;;;;;0.30;0.30;;;;;;;20.92;28.00;101348.06;5071508;28;20051;-73
2022/06/06 06:59:08;;;;;;;0.63;0.40;;;;;;;20.64;27.68;101356.00;5073823;28;20052;-73
2022/06/06 07:10:41;;;;;;;0.90;0.50;;;;;;;21.25;27.46;101343.53;5093910;28;20051;-73
2022/06/06 07:13:41;;;;;;;0.47;0.40;;;;;;;21.40;28.44;101346.91;5093560;28;20088;-73
2022/06/06 07:16:24;;;;;;;1.55;0.40;;;;;;;21.47;27.26;101347.19;5093110;28;20036;-73
2022/06/06 07:18:58;;;;;;;1.15;0.40;;;;;;;21.34;28.41;101349.88;5093707;28;20036;-72
2022/06/06 07:21:25;;;;;;;0.30;0.30;;;;;;;21.14;28.02;101356.19;5075199;28;20058;-72
2022/06/06 07:23:53;;;;;;;0.55;0.38;;;;;;;20.94;28.02;101354.13;5087189;28;20043;-72
2022/06/06 07:26:19;;;;;;;0.75;0.40;;;;;;;20.77;28.02;101355.81;5074951;28;20081;-72
2022/06/06 07:28:44;;;;;;;0.65;0.50;;;;;;;21.00;28.29;101362.00;5080735;28;20032;-72
2022/06/06 07:31:16;;;;;;;0.60;0.60;;;;;;;20.98;27.50;101350.31;5092973;28;20031;-72
2022/06/06 07:33:55;;;;;;;0.40;0.32;;;;;;;20.88;28.13;101358.25;5092818;28;20551;-72
2022/06/06 07:36:45;;;;;;;0.60;0.40;;;;;;;20.71;28.46;101359.94;5091624;28;20112;-72
2022/06/06 07:39:23;;;;;;;1.73;0.40;;;;;;;20.69;28.41;101361.44;5091934;28;20070;-72
2022/06/06 07:42:16;;;;;;;0.32;0.30;;;;;;;20.93;28.20;101352.50;5093300;28;20607;-72
2022/06/06 07:44:47;;;;;;;1.25;0.40;;;;;;;21.10;28.81;101358.00;5073068;28;20105;-72
2022/06/06 07:47:48;;;;;;;0.75;0.50;;;;;;;21.25;27.22;101362.25;5093045;28;20138;-72
2022/06/06 07:50:25;;;;;;;0.47;0.47;;;;;;;20.90;28.47;101358.75;5092691;28;20383;-71
2022/06/06 07:53:03;;;;;;;0.55;0.32;;;;;;;20.81;28.85;101366.31;5073038;28;20044;-72
2022/06/06 07:55:44;;;;;;;1.85;0.50;;;;;;;21.00;28.62;101363.94;5071248;28;20040;-71
2022/06/06 07:58:17;;;;;;;4.20;0.47;;;;;;;20.60;28.77;101358.66;5071375;28;20044;-71
2022/06/06 08:00:49;;;;;;;0.70;0.47;;;;;;;20.36;29.18;101364.75;5072169;28;20076;-72
2022/06/06 08:03:23;;;;;;;2.30;0.60;;;;;;;20.14;29.56;101357.38;5071218;28;20043;-71
2022/06/06 08:05:55;;;;;;;0.40;0.40;;;;;;;20.14;30.04;101368.53;5077305;28;20040;-71
2022/06/06 08:08:45;;;;;;;0.98;0.88;;;;;;;20.24;29.57;101360.97;5092315;28;20054;-71
2022/06/06 08:11:21;;;;;;;0.95;0.63;;;;;;;20.45;28.97;101364.75;5081348;28;20040;-71
2022/06/06 08:13:57;;;;;;;3.90;0.75;;;;;;;20.17;29.84;101367.88;5104942;28;20082;-71
2022/06/06 08:17:07;;;;;;;1.83;0.75;;;;;;;20.09;30.36;101367.84;5072333;28;20036;-71
2022/06/06 08:20:02;;;;;;;1.33;0.57;;;;;;;20.38;29.11;101367.19;5055714;28;20400;-71
2022/06/06 08:22:29;;;;;;;2.65;0.70;;;;;;;20.46;29.91;101364.41;5070537;28;20479;-71
2022/06/06 08:24:57;;;;;;;0.50;0.50;;;;;;;20.58;29.39;101371.28;5072108;28;20048;-71
2022/06/06 08:27:25;;;;;;;0.63;0.50;;;;;;;20.55;29.40;101364.41;5071615;28;20632;-71
2022/06/06 08:29:50;;;;;;;3.40;0.68;;;;;;;20.76;29.45;101368.13;5090595;28;20147;-71
2022/06/06 08:32:16;;;;;;;4.75;0.65;;;;;;;20.63;29.54;101366.34;5085868;28;20504;-71
2022/06/06 08:34:42;;;;;;;0.98;0.40;;;;;;;20.13;29.88;101375.25;5091738;28;20069;-71
2022/06/06 08:37:08;;;;;;;0.90;0.73;;;;;;;19.92;30.66;101379.00;5091246;28;20044;-72
2022/06/06 08:39:45;;;;;;;0.68;0.47;;;;;;;19.96;30.15;101368.81;5091712;28;20409;-71
2022/06/06 08:42:31;;;;;;;0.50;0.40;;;;;;;20.25;29.95;101366.22;5091679;28;20031;-71
2022/06/06 08:45:33;;;;;;;0.60;0.60;;;;;;;20.55;30.12;101364.41;5090769;28;20295;-71
2022/06/06 08:48:02;;;;;;;0.98;0.55;;;;;;;20.75;30.23;101360.09;5074660;28;20463;-71
2022/06/06 08:50:49;;;;;;;1.65;0.50;;;;;;;20.75;29.83;101369.28;5071446;28;20041;-71
2022/06/06 08:53:30;;;;;;;1.45;0.60;;;;;;;20.36;30.21;101377.84;5071506;28;20093;-71
2022/06/06 08:56:01;;;;;;;0.50;0.43;;;;;;;;;;5071443;28;20048;-71
2022/06/06 08:58:33;;;;;;;0.40;0.40;;;;;;;19.82;31.30;101377.34;5071050;28;20041;-71
2022/06/06 09:01:13;;;;;;;0.60;0.60;;;;;;;19.77;31.80;101369.13;5071153;28;20556;-71
2022/06/06 09:04:00;;;;;;;0.88;0.60;;;;;;;20.08;32.11;101369.81;5074753;28;20052;-71
2022/06/06 09:07:11;;;;;;;1.17;0.82;;;;;;;20.40;31.42;101378.84;5084423;28;20433;-71
2022/06/06 09:09:55;;;;;;;1.77;0.82;;;;;;;20.37;31.47;101377.53;5082671;28;20048;-71
2022/06/06 09:12:27;;;;;;;0.82;0.40;;;;;;;20.26;31.11;101362.28;5071040;28;20086;-71
2022/06/06 09:15:11;;;;;;;0.50;0.50;;;;;;;20.21;31.71;101370.00;5071200;28;20040;-71
2022/06/06 09:18:15;;;;;;;1.80;0.60;;;;;;;20.23;31.60;101370.47;5071593;28;20085;-71
2022/06/06 09:21:04;;;;;;;0.98;0.90;;;;;;;20.52;30.31;101373.44;5069842;28;20044;-71
2022/06/06 09:23:57;;;;;;;1.35;0.60;;;;;;;20.16;30.45;101366.22;5070896;28;20047;-71
2022/06/06 09:26:48;;;;;;;0.50;0.50;;;;;;;19.91;30.54;101363.41;5070677;28;20510;-71
2022/06/06 09:29:34;;;;;;;1.13;0.60;;;;;;;19.85;31.17;101365.56;5088212;28;20067;-71
2022/06/06 09:32:30;;;;;;;0.50;0.50;;;;;;;19.90;31.84;101354.25;5075630;28;20117;-71
2022/06/06 09:35:11;;;;;;;5.50;0.70;;;;;;;19.98;33.61;101353.44;5070384;28;20040;-71
2022/06/06 09:38:14;;;;;;;1.75;0.85;;;;;;;20.07;34.32;101361.78;5070633;28;20044;-71
2022/06/06 09:40:51;;;;;;;0.73;0.68;;;;;;;19.77;35.07;101364.38;5070663;28;20503;-71
2022/06/06 09:43:40;;;;;;;2.47;0.65;;;;;;;19.61;35.28;101359.59;5070703;28;20036;-71
2022/06/06 09:46:21;;;;;;;1.00;0.80;;;;;;;19.46;34.76;101367.25;5081237;28;20093;-71
2022/06/06 09:49:05;;;;;;;0.90;0.70;;;;;;;19.30;35.08;101363.28;5092657;28;20164;-72
2022/06/06 09:51:43;;;;;;;0.55;0.52;;;;;;;19.16;35.00;101371.72;5089820;28;20128;-71
2022/06/06 10:00:38;;;;;;;0.73;0.65;;;;;;;19.27;36.26;101355.59;5074341;28;20048;-71
2022/06/06 10:03:16;;;;;;;0.60;0.57;;;;;;;19.39;36.03;101358.53;5090390;28;20040;-71
2022/06/06 10:05:53;;;;;;;0.73;0.70;;;;;;;19.23;36.21;101354.56;5077544;28;20513;-71
2022/06/06 10:08:42;;;;;;;0.68;0.55;;;;;;;19.08;36.27;101355.81;5074041;28;20062;-71
2022/06/06 10:11:44;;;;;;;0.68;0.68;;;;;;;18.93;37.18;101359.03;5073775;28;20036;-71
2022/06/06 10:14:29;;;;;;;3.30;0.75;;;;;;;18.90;36.92;101363.25;5073972;28;20388;-71
2022/06/06 10:17:33;;;;;;;0.70;0.70;;;;;;;18.76;37.35;101362.56;5083697;28;20036;-71
2022/06/06 10:20:18;;;;;;;0.77;0.60;;;;;;;18.50;37.47;101361.53;5078371;28;20041;-72
2022/06/06 10:23:09;;;;;;;0.60;0.60;;;;;;;18.48;38.06;101361.03;5085229;28;20086;-72
2022/06/06 10:26:11;;;;;;;0.57;0.50;;;;;;;18.58;38.08;101356.03;5091467;28;20036;-73
2022/06/06 10:28:58;;;;;;;1.60;0.73;;;;;;;18.66;37.84;101357.25;5094679;28;20040;-73
2022/06/06 10:31:52;;;;;;;0.65;0.60;;;;;;;18.67;37.19;101351.38;5094389;28;20442;-72
2022/06/06 10:34:32;;;;;;;0.75;0.75;;;;;;;18.65;36.81;101355.59;5094211;28;20040;-72
2022/06/06 10:37:00;;;;;;;0.80;0.80;;;;;;;18.77;36.60;101355.84;5094512;28;20044;-72
2022/06/06 10:39:53;;;;;;;0.60;0.60;;;;;;;18.86;36.16;101359.47;5074805;28;20051;-72
2022/06/06 10:43:10;;;;;;;1.20;0.88;;;;;;;18.89;36.30;101361.63;5073453;28;20040;-72
2022/06/06 10:45:37;;;;;;;0.57;0.57;;;;;;;18.93;36.44;101362.66;5071142;28;20107;-71
2022/06/06 10:48:28;;;;;;;0.75;0.70;;;;;;;18.99;36.27;101352.19;5071296;28;20045;-72
2022/06/06 10:54:33;;;;;;;0.77;0.73;;;;;;;18.98;36.41;101358.91;5072357;28;20048;-73
2022/06/06 10:57:14;;;;;;;1.00;0.90;;;;;;;18.95;36.52;101365.91;5077142;28;20039;-72
2022/06/06 10:59:58;;;;;;;2.50;0.68;;;;;;;19.08;36.63;101358.59;5082887;28;20070;-73
2022/06/06 11:02:49;;;;;;;3.80;0.73;;;;;;;19.12;36.32;101359.63;5081851;28;20502;-72
2022/06/06 11:05:29;;;;;;;0.98;0.65;;;;;;;19.16;36.31;101362.56;5072702;28;20094;-72
2022/06/06 11:08:18;;;;;;;2.20;0.60;;;;;;;19.14;36.12;101367.63;5067201;28;20041;-72
2022/06/06 11:11:21;;;;;;;0.60;0.60;;;;;;;19.00;35.71;101364.94;5080473;28;20527;-70
2022/06/06 11:14:04;;;;;;;0.82;0.70;;;;;;;18.88;35.93;101373.88;5077702;28;20033;-71
2022/06/06 11:16:51;;;;;;;0.75;0.60;;;;;;;18.96;36.19;101367.56;5082277;28;20052;-72
2022/06/06 11:19:37;;;;;;;0.85;0.63;;;;;;;18.97;36.05;101363.63;5073212;28;20408;-73
2022/06/06 11:22:21;;;;;;;2.88;1.00;;;;;;;18.84;36.09;101358.97;5088853;28;20084;-73
2022/06/06 11:25:08;;;;;;;3.67;0.90;;;;;;;18.84;36.35;101356.22;5073354;28;20044;-73
2022/06/06 11:27:51;;;;;;;1.42;0.85;;;;;;;18.92;36.67;101363.78;5081071;28;20494;-73
2022/06/06 11:30:55;;;;;;;1.00;0.70;;;;;;;19.07;36.49;101375.59;5079721;28;20068;-71
2022/06/06 11:33:32;;;;;;;0.50;0.50;;;;;;;19.10;36.13;101375.81;5073462;28;20037;-73
2022/06/06 11:36:16;;;;;;;2.10;0.63;;;;;;;19.13;35.98;101371.56;5072837;28;20491;-73
2022/06/06 11:38:54;;;;;;;2.80;0.70;;;;;;;19.00;35.94;101361.34;5082394;28;20616;-73
2022/06/06 11:41:55;;;;;;;1.10;0.73;;;;;;;18.93;36.19;101364.59;5076923;28;20047;-73
2022/06/06 11:44:39;;;;;;;0.90;0.68;;;;;;;19.01;36.17;101365.78;5071522;28;20047;-73
2022/06/06 11:47:26;;;;;;;0.85;0.50;;;;;;;18.90;35.90;101368.81;5071820;28;20064;-73
2022/06/06 11:50:14;;;;;;;1.02;0.70;;;;;;;18.80;36.02;101373.84;5072959;28;20091;-73
2022/06/06 11:52:58;;;;;;;1.02;0.70;;;;;;;18.65;36.30;101361.16;5074235;28;20763;-73
2022/06/06 11:55:30;;;;;;;1.02;0.63;;;;;;;18.65;36.64;101350.88;5087181;28;20413;-73
2022/06/06 11:57:58;;;;;;;1.48;0.65;;;;;;;18.70;36.44;101354.66;5091236;28;20150;-73
2022/06/06 12:00:42;;;;;;;3.70;0.85;;;;;;;18.61;36.21;101357.38;5086459;28;20043;-73
2022/06/06 12:03:23;;;;;;;1.60;0.70;;;;;;;18.61;36.55;101352.63;5085073;28;20119;-73
2022/06/06 12:06:12;;;;;;;3.83;0.82;;;;;;;18.66;36.83;101358.06;5075102;28;20131;-73
2022/06/06 12:08:47;;;;;;;0.73;0.60;;;;;;;18.79;36.54;101356.34;5072549;28;20066;-73
2022/06/06 12:11:25;;;;;;;0.60;0.60;;;;;;;18.82;36.43;101357.66;5071906;28;20029;-73
2022/06/06 12:14:10;;;;;;;0.73;0.70;;;;;;;18.75;37.08;101349.78;5072291;28;20040;-73
2022/06/06 12:16:54;;;;;;;2.05;0.70;;;;;;;18.71;36.25;101359.88;5072069;28;20040;-72
2022/06/06 12:19:55;;;;;;;1.02;0.77;;;;;;;18.64;36.59;101363.13;5077571;28;20036;-73
2022/06/06 12:22:46;;;;;;;0.63;0.57;;;;;;;18.58;36.80;101361.59;5069588;28;20036;-72
2022/06/06 12:25:34;;;;;;;1.33;0.85;;;;;;;18.52;36.57;101359.25;5085923;28;20102;-72
2022/06/06 12:28:26;;;;;;;1.48;0.90;;;;;;;18.45;36.83;101356.94;5092417;28;20052;-71
2022/06/06 12:31:28;;;;;;;1.48;0.70;;;;;;;18.41;36.82;101360.66;5089046;28;20078;-71
2022/06/06 12:34:07;;;;;;;1.10;0.80;;;;;;;18.35;37.41;101363.56;5091931;28;20036;-72
2022/06/06 12:36:32;;;;;;;;;;;;;;;18.37;36.97;101369.63;5090187;28;20498;-72
2022/06/06 12:39:20;;;;;;;0.70;0.70;;;;;;;18.39;37.16;101372.88;5084337;28;19927;-71
2022/06/06 12:42:17;;;;;;;0.70;0.50;;;;;;;18.46;37.12;101369.69;5080093;28;20121;-72
2022/06/06 12:44:59;;;;;;;1.45;0.82;;;;;;;18.30;36.95;101371.19;5078156;28;20449;-71
2022/06/06 12:47:49;;;;;;;1.95;0.73;;;;;;;18.19;37.39;101370.63;5087033;28;20459;-71
2022/06/06 12:50:29;;;;;;;0.65;0.60;;;;;;;18.21;37.78;101364.75;5083121;28;20452;-71